Time;durP1;ratioP1;P1;durP2;ratioP2;P2;SDS_P1;SDS_P2;PMS_P1;PMS_P2;Temp;Humidity;BMP_temperature;BMP_pressure;BME280_temperature;BME280_humidity;BME280_pressure;Samples;Min_cycle;Max_cycle;Signal;HPM_P1;HPM_P2
2023/12/16 00:02:04;;;;;;;9.85;5.50;;;;;;;;;;5068333;28;20094;-85
2023/12/16 00:04:37;;;;;;;10.60;5.25;;;;;;;;;;5067873;28;20052;-85
2023/12/16 00:07:06;;;;;;;9.00;5.65;;;;;;;;;;5068775;28;20587;-86
2023/12/16 00:09:34;;;;;;;9.77;5.63;;;;;;;;;;5068958;28;20151;-84
2023/12/16 00:12:03;;;;;;;12.88;6.93;;;;;;;;;;5067152;28;20088;-84
2023/12/16 00:14:36;;;;;;;11.25;5.97;;;;;;;;;;5063224;28;20161;-84
2023/12/16 00:17:06;;;;;;;9.68;5.50;;;;;;;;;;5067718;28;20137;-84
2023/12/16 00:19:35;;;;;;;9.68;5.88;;;;;;;;;;5068121;28;20101;-83
2023/12/16 00:22:03;;;;;;;10.85;6.50;;;;;;;;;;5070449;28;20559;-84
2023/12/16 00:24:32;;;;;;;12.00;6.45;;;;;;;;;;5068862;28;20131;-85
2023/12/16 00:27:01;;;;;;;10.40;5.85;;;;;;;;;;5063078;28;20501;-85
2023/12/16 00:29:29;;;;;;;10.55;5.80;;;;;;;;;;5068756;28;20109;-84
2023/12/16 00:31:58;;;;;;;11.25;6.00;;;;;;;;;;5069040;28;20109;-84
2023/12/16 00:34:28;;;;;;;11.38;5.88;;;;;;;;;;5068215;28;20437;-84
2023/12/16 00:36:57;;;;;;;12.18;6.18;;;;;;;;;;5067912;28;20060;-84
2023/12/16 00:39:25;;;;;;;7.85;4.95;;;;;;;;;;5066683;28;20067;-85
2023/12/16 00:41:53;;;;;;;10.95;5.75;;;;;;;;;;5067344;28;20048;-84
2023/12/16 00:44:22;;;;;;;11.48;5.88;;;;;;;;;;5068074;28;20558;-84
2023/12/16 00:46:50;;;;;;;9.88;5.55;;;;;;;;;;5061819;28;20068;-84
2023/12/16 00:49:19;;;;;;;9.50;5.25;;;;;;;;;;5068113;28;20118;-84
2023/12/16 00:51:48;;;;;;;9.73;5.13;;;;;;;;;;5065248;28;20044;-84
2023/12/16 00:54:17;;;;;;;10.02;5.68;;;;;;;;;;5066547;28;20055;-85
2023/12/16 00:56:47;;;;;;;12.00;5.63;;;;;;;;;;5067873;28;20052;-84
2023/12/16 00:59:15;;;;;;;12.75;6.20;;;;;;;;;;5067694;28;20044;-85
2023/12/16 01:01:44;;;;;;;9.65;6.03;;;;;;;;;;5061907;28;20044;-84
2023/12/16 01:04:12;;;;;;;9.23;5.63;;;;;;;;;;5064620;28;20055;-84
2023/12/16 01:06:41;;;;;;;9.45;5.97;;;;;;;;;;5066498;28;20489;-83
2023/12/16 01:09:11;;;;;;;11.32;6.40;;;;;;;;;;5067122;28;20075;-84
2023/12/16 01:11:39;;;;;;;11.18;5.60;;;;;;;;;;5065363;28;20116;-84
2023/12/16 01:14:08;;;;;;;10.63;5.50;;;;;;;;;;5063039;28;20133;-84
2023/12/16 01:16:36;;;;;;;10.27;5.43;;;;;;;;;;5066032;28;26636;-84
2023/12/16 01:19:04;;;;;;;10.13;5.05;;;;;;;;;;5067802;28;20537;-83
2023/12/16 01:21:33;;;;;;;10.70;5.22;;;;;;;;;;5063880;28;20413;-84
2023/12/16 01:24:02;;;;;;;10.70;5.72;;;;;;;;;;5064587;28;20044;-84
2023/12/16 01:26:31;;;;;;;10.40;5.70;;;;;;;;;;5064599;28;20119;-84
2023/12/16 01:29:00;;;;;;;9.40;5.47;;;;;;;;;;5066289;28;20044;-83
2023/12/16 01:31:28;;;;;;;10.73;5.10;;;;;;;;;;5066346;28;20053;-84
2023/12/16 01:33:57;;;;;;;10.60;5.80;;;;;;;;;;5067144;28;20239;-84
2023/12/16 01:36:25;;;;;;;11.05;5.50;;;;;;;;;;5068789;28;20049;-84
2023/12/16 01:38:54;;;;;;;9.30;5.15;;;;;;;;;;5063620;28;20485;-84
2023/12/16 01:41:22;;;;;;;10.80;5.60;;;;;;;;;;5064278;28;20056;-84
2023/12/16 01:43:52;;;;;;;13.02;6.07;;;;;;;;;;5064470;28;20044;-84
2023/12/16 01:46:22;;;;;;;9.70;6.35;;;;;;;;;;5067448;28;20398;-84
2023/12/16 01:48:50;;;;;;;10.43;5.60;;;;;;;;;;5060720;28;20036;-84
2023/12/16 01:51:20;;;;;;;12.43;5.97;;;;;;;;;;5068044;28;20049;-85
2023/12/16 01:53:48;;;;;;;10.43;5.80;;;;;;;;;;5064176;28;20448;-85
2023/12/16 01:56:17;;;;;;;7.55;4.97;;;;;;;;;;5066359;28;20048;-85
2023/12/16 01:58:45;;;;;;;9.93;6.03;;;;;;;;;;5066071;28;20485;-84
2023/12/16 02:01:15;;;;;;;9.65;5.15;;;;;;;;;;5065871;28;20139;-83
2023/12/16 02:03:43;;;;;;;9.70;5.25;;;;;;;;;;5065151;28;20051;-84
2023/12/16 02:06:12;;;;;;;9.60;6.07;;;;;;;;;;5066829;28;20048;-85
2023/12/16 02:08:40;;;;;;;11.85;6.07;;;;;;;;;;5065890;28;20071;-85
2023/12/16 02:11:10;;;;;;;10.75;5.65;;;;;;;;;;5063374;28;20442;-84
2023/12/16 02:13:38;;;;;;;9.77;5.45;;;;;;;;;;5067273;28;20051;-84
2023/12/16 02:16:09;;;;;;;9.05;5.38;;;;;;;;;;5064928;28;20040;-85
2023/12/16 02:18:40;;;;;;;9.57;5.47;;;;;;;;;;5064727;28;20425;-84
2023/12/16 02:21:08;;;;;;;11.55;6.28;;;;;;;;;;5064588;28;20072;-85
2023/12/16 02:23:41;;;;;;;9.48;5.85;;;;;;;;;;5065324;28;20060;-83
2023/12/16 02:26:09;;;;;;;12.90;6.53;;;;;;;;;;5066752;28;20048;-83
2023/12/16 02:28:38;;;;;;;11.63;6.45;;;;;;;;;;5062722;28;20048;-84
2023/12/16 02:31:06;;;;;;;11.82;6.35;;;;;;;;;;5062560;28;20105;-84
2023/12/16 02:33:35;;;;;;;12.65;6.55;;;;;;;;;;5065301;28;20105;-84
2023/12/16 02:36:04;;;;;;;10.75;6.15;;;;;;;;;;5063670;28;20148;-84
2023/12/16 02:38:32;;;;;;;12.95;7.15;;;;;;;;;;5065212;28;20098;-84
2023/12/16 02:41:02;;;;;;;12.02;6.28;;;;;;;;;;5063959;28;20357;-84
2023/12/16 02:43:30;;;;;;;11.32;6.05;;;;;;;;;;5061779;28;20064;-85
2023/12/16 02:45:59;;;;;;;10.38;6.43;;;;;;;;;;5065404;28;20075;-83
2023/12/16 02:48:27;;;;;;;13.23;6.47;;;;;;;;;;5061725;28;20052;-83
2023/12/16 02:50:56;;;;;;;11.57;6.22;;;;;;;;;;5069522;28;20064;-83
2023/12/16 02:53:24;;;;;;;10.98;5.32;;;;;;;;;;5069146;28;20036;-84
2023/12/16 02:55:53;;;;;;;12.77;6.63;;;;;;;;;;5068633;28;20505;-84
2023/12/16 02:58:22;;;;;;;10.05;5.00;;;;;;;;;;5064861;28;20087;-84
2023/12/16 03:00:51;;;;;;;11.35;5.72;;;;;;;;;;5070658;28;20058;-83
2023/12/16 03:03:19;;;;;;;11.98;6.18;;;;;;;;;;5067540;28;20049;-83
2023/12/16 03:05:48;;;;;;;9.95;5.10;;;;;;;;;;5071829;28;20072;-85
2023/12/16 03:08:16;;;;;;;8.40;5.15;;;;;;;;;;5064519;28;20068;-84
2023/12/16 03:10:45;;;;;;;10.50;5.97;;;;;;;;;;5071710;28;20106;-83
2023/12/16 03:13:13;;;;;;;8.75;4.95;;;;;;;;;;5070388;28;20086;-83
2023/12/16 03:15:43;;;;;;;8.23;5.30;;;;;;;;;;5071374;28;20477;-83
2023/12/16 03:18:11;;;;;;;9.55;5.22;;;;;;;;;;5064629;28;20053;-85
2023/12/16 03:20:40;;;;;;;7.32;4.63;;;;;;;;;;5069945;28;20497;-84
2023/12/16 03:23:09;;;;;;;7.85;4.70;;;;;;;;;;5066758;28;20555;-85
2023/12/16 03:25:37;;;;;;;8.57;4.60;;;;;;;;;;5070461;28;20490;-84
2023/12/16 03:28:06;;;;;;;7.78;4.45;;;;;;;;;;5066458;28;20487;-84
2023/12/16 03:30:34;;;;;;;8.43;4.88;;;;;;;;;;5069604;28;20048;-83
2023/12/16 03:33:04;;;;;;;8.55;4.75;;;;;;;;;;5066855;28;20048;-83
2023/12/16 03:35:33;;;;;;;10.82;4.88;;;;;;;;;;5069653;28;20500;-83
2023/12/16 03:38:01;;;;;;;8.23;4.18;;;;;;;;;;5068919;28;20127;-84
2023/12/16 03:40:30;;;;;;;7.45;4.18;;;;;;;;;;5069346;28;20110;-83
2023/12/16 03:42:59;;;;;;;9.85;5.40;;;;;;;;;;5068526;28;20090;-83
2023/12/16 03:45:28;;;;;;;7.32;4.18;;;;;;;;;;5069063;28;20060;-83
2023/12/16 03:47:56;;;;;;;6.85;4.30;;;;;;;;;;5063979;28;20090;-83
2023/12/16 03:50:26;;;;;;;7.05;4.35;;;;;;;;;;5067853;28;20049;-82
2023/12/16 03:52:54;;;;;;;8.60;5.20;;;;;;;;;;5067122;28;20057;-83
2023/12/16 03:55:23;;;;;;;8.32;4.45;;;;;;;;;;5067346;28;20126;-83
2023/12/16 03:57:50;;;;;;;7.25;4.53;;;;;;;;;;5064223;28;20143;-83
2023/12/16 04:00:19;;;;;;;7.05;4.00;;;;;;;;;;5066790;28;20040;-82
2023/12/16 04:02:48;;;;;;;8.43;4.60;;;;;;;;;;5069742;28;20047;-82
2023/12/16 04:05:16;;;;;;;6.72;4.18;;;;;;;;;;5068532;28;20052;-82
2023/12/16 04:07:46;;;;;;;8.98;4.70;;;;;;;;;;5069428;28;20045;-83
2023/12/16 04:10:14;;;;;;;7.50;4.68;;;;;;;;;;5066795;28;20048;-84
2023/12/16 04:12:43;;;;;;;8.65;4.80;;;;;;;;;;5068035;28;20056;-83
2023/12/16 04:15:12;;;;;;;9.77;5.05;;;;;;;;;;5065684;28;20405;-83
2023/12/16 04:17:41;;;;;;;10.52;4.82;;;;;;;;;;5067122;28;20067;-83
2023/12/16 04:20:10;;;;;;;9.73;4.82;;;;;;;;;;5070175;28;20135;-83
2023/12/16 04:22:39;;;;;;;8.48;4.55;;;;;;;;;;5068700;28;20044;-82
2023/12/16 04:25:10;;;;;;;9.02;4.60;;;;;;;;;;5067835;28;20052;-84
2023/12/16 04:27:39;;;;;;;7.18;4.07;;;;;;;;;;5063488;28;20048;-83
2023/12/16 04:30:09;;;;;;;13.88;5.78;;;;;;;;;;5067092;28;20095;-83
2023/12/16 04:32:38;;;;;;;6.80;4.03;;;;;;;;;;5068855;28;20054;-83
2023/12/16 04:35:06;;;;;;;10.65;5.50;;;;;;;;;;5066191;28;20485;-83
2023/12/16 04:37:35;;;;;;;9.55;4.63;;;;;;;;;;5068102;28;20157;-83
2023/12/16 04:40:05;;;;;;;12.57;5.70;;;;;;;;;;5067619;28;20296;-82
2023/12/16 04:42:35;;;;;;;9.20;4.68;;;;;;;;;;5066789;28;20450;-82
2023/12/16 04:45:03;;;;;;;10.48;6.10;;;;;;;;;;5067701;28;21375;-82
2023/12/16 04:47:32;;;;;;;9.10;5.50;;;;;;;;;;5062427;28;20135;-84
2023/12/16 04:50:00;;;;;;;8.80;4.72;;;;;;;;;;5068110;28;20136;-83
2023/12/16 04:52:29;;;;;;;12.27;5.43;;;;;;;;;;5065257;28;20055;-84
2023/12/16 04:54:57;;;;;;;8.25;4.53;;;;;;;;;;5067535;28;20110;-82
2023/12/16 04:57:26;;;;;;;9.30;5.22;;;;;;;;;;5063468;28;20051;-83
2023/12/16 04:59:55;;;;;;;8.73;4.78;;;;;;;;;;5066863;28;20230;-83
2023/12/16 05:02:24;;;;;;;8.73;4.88;;;;;;;;;;5064329;28;20040;-83
2023/12/16 05:04:52;;;;;;;12.20;5.75;;;;;;;;;;5065492;28;20041;-82
2023/12/16 05:07:21;;;;;;;10.30;5.20;;;;;;;;;;5067311;28;20489;-82
2023/12/16 05:09:49;;;;;;;9.93;5.47;;;;;;;;;;5066838;28;20524;-83
2023/12/16 05:12:18;;;;;;;8.73;5.32;;;;;;;;;;5059406;28;20093;-83
2023/12/16 05:15:05;;;;;;;10.73;5.53;;;;;;;;;;5063551;28;20142;-83
2023/12/16 05:17:33;;;;;;;8.95;4.90;;;;;;;;;;5068213;28;20060;-83
2023/12/16 05:20:02;;;;;;;9.85;5.40;;;;;;;;;;5067653;28;20080;-83
2023/12/16 05:22:33;;;;;;;11.90;5.63;;;;;;;;;;5065274;28;20444;-82
2023/12/16 05:25:02;;;;;;;11.18;5.53;;;;;;;;;;5066409;28;20179;-83
2023/12/16 05:27:31;;;;;;;12.30;6.28;;;;;;;;;;5064107;28;20448;-83
2023/12/16 05:30:00;;;;;;;10.43;5.45;;;;;;;;;;5065950;28;20129;-83
2023/12/16 05:32:30;;;;;;;11.50;5.55;;;;;;;;;;5066011;28;20066;-83
2023/12/16 05:34:58;;;;;;;9.75;5.15;;;;;;;;;;5065417;28;20413;-82
2023/12/16 05:37:27;;;;;;;10.85;5.88;;;;;;;;;;5063916;28;20094;-84
2023/12/16 05:39:55;;;;;;;9.93;6.40;;;;;;;;;;5067800;28;20064;-83
2023/12/16 05:42:24;;;;;;;10.25;5.65;;;;;;;;;;5065216;28;20052;-82
2023/12/16 05:44:54;;;;;;;11.00;5.53;;;;;;;;;;5066910;28;20142;-83
2023/12/16 05:47:22;;;;;;;7.90;5.30;;;;;;;;;;5059811;28;20048;-82
2023/12/16 05:49:52;;;;;;;12.20;6.32;;;;;;;;;;5067212;28;20045;-83
2023/12/16 05:52:21;;;;;;;9.05;5.10;;;;;;;;;;5064824;28;20048;-84
2023/12/16 05:54:49;;;;;;;12.50;6.60;;;;;;;;;;5069028;28;20044;-82
2023/12/16 05:57:17;;;;;;;10.57;5.88;;;;;;;;;;5062696;28;20406;-82
2023/12/16 05:59:46;;;;;;;10.80;5.93;;;;;;;;;;5065134;28;20486;-83
2023/12/16 06:02:14;;;;;;;12.50;6.07;;;;;;;;;;5066947;28;20057;-82
2023/12/16 06:04:43;;;;;;;13.63;6.53;;;;;;;;;;5066061;28;20053;-82
2023/12/16 06:07:13;;;;;;;11.10;6.32;;;;;;;;;;5066283;28;20056;-82
2023/12/16 06:09:41;;;;;;;9.80;5.65;;;;;;;;;;5063967;28;20139;-84
2023/12/16 06:12:10;;;;;;;11.70;6.57;;;;;;;;;;5061363;28;20076;-83
2023/12/16 06:14:38;;;;;;;11.60;5.97;;;;;;;;;;5067079;28;20080;-83
2023/12/16 06:17:07;;;;;;;13.85;6.05;;;;;;;;;;5064385;28;20498;-83
2023/12/16 06:19:35;;;;;;;11.95;6.22;;;;;;;;;;5067600;28;20062;-83
2023/12/16 06:22:04;;;;;;;13.20;6.35;;;;;;;;;;5066169;28;20063;-82
2023/12/16 06:24:34;;;;;;;13.23;5.97;;;;;;;;;;5066364;28;20049;-83
2023/12/16 06:27:02;;;;;;;13.48;5.95;;;;;;;;;;5064161;28;20394;-84
2023/12/16 06:29:31;;;;;;;12.52;6.85;;;;;;;;;;5065871;28;20122;-83
2023/12/16 06:31:59;;;;;;;11.15;6.22;;;;;;;;;;5062220;28;20114;-82
2023/12/16 06:34:28;;;;;;;11.70;6.30;;;;;;;;;;5068969;28;20057;-82
2023/12/16 06:36:56;;;;;;;12.30;5.72;;;;;;;;;;5064827;28;20056;-82
2023/12/16 06:39:24;;;;;;;12.00;6.47;;;;;;;;;;5068206;28;20052;-82
2023/12/16 06:41:54;;;;;;;9.23;5.63;;;;;;;;;;5069260;28;20037;-81
2023/12/16 06:44:22;;;;;;;11.07;6.00;;;;;;;;;;5064516;28;20134;-81
2023/12/16 06:46:51;;;;;;;12.90;5.95;;;;;;;;;;5065193;28;20121;-82
2023/12/16 06:49:19;;;;;;;9.98;5.78;;;;;;;;;;5060226;28;20571;-83
2023/12/16 06:51:48;;;;;;;10.25;5.13;;;;;;;;;;5064457;28;20063;-82
2023/12/16 06:54:16;;;;;;;12.13;6.15;;;;;;;;;;5068595;28;20094;-82
2023/12/16 06:56:44;;;;;;;10.43;5.70;;;;;;;;;;5066295;28;20106;-84
2023/12/16 06:59:14;;;;;;;8.43;5.30;;;;;;;;;;5064468;28;20738;-82
2023/12/16 07:01:43;;;;;;;11.25;6.35;;;;;;;;;;5069092;28;20040;-82
2023/12/16 07:04:11;;;;;;;11.27;5.38;;;;;;;;;;5065329;28;20496;-82
2023/12/16 07:06:40;;;;;;;12.15;5.70;;;;;;;;;;5064660;28;20049;-82
2023/12/16 07:09:08;;;;;;;13.00;6.43;;;;;;;;;;5069982;28;20056;-81
2023/12/16 07:11:39;;;;;;;11.63;5.90;;;;;;;;;;5069017;28;20049;-82
2023/12/16 07:14:08;;;;;;;12.07;5.53;;;;;;;;;;5068378;28;20048;-82
2023/12/16 07:16:38;;;;;;;16.17;5.85;;;;;;;;;;5066682;28;20045;-82
2023/12/16 07:19:07;;;;;;;10.85;5.38;;;;;;;;;;5066271;28;20114;-83
2023/12/16 07:21:36;;;;;;;10.00;5.53;;;;;;;;;;5062428;28;20057;-82
2023/12/16 07:24:04;;;;;;;10.32;5.35;;;;;;;;;;5068225;28;20122;-82
2023/12/16 07:26:34;;;;;;;10.18;4.55;;;;;;;;;;5065328;28;20489;-82
2023/12/16 07:29:02;;;;;;;11.45;6.03;;;;;;;;;;5067011;28;20059;-82
2023/12/16 07:31:30;;;;;;;11.05;6.07;;;;;;;;;;5067470;28;20048;-82
2023/12/16 07:34:00;;;;;;;9.07;5.25;;;;;;;;;;5063465;28;20056;-82
2023/12/16 07:36:29;;;;;;;10.45;5.40;;;;;;;;;;5065606;28;20143;-82
2023/12/16 07:38:57;;;;;;;11.90;6.07;;;;;;;;;;5067948;28;20048;-82
2023/12/16 07:41:26;;;;;;;10.40;5.55;;;;;;;;;;5064261;28;20041;-82
2023/12/16 07:43:54;;;;;;;9.25;5.38;;;;;;;;;;5069123;28;20048;-83
2023/12/16 07:46:26;;;;;;;9.60;5.45;;;;;;;;;;5064821;28;20679;-82
2023/12/16 07:48:54;;;;;;;11.57;6.10;;;;;;;;;;5060264;28;20450;-82
2023/12/16 07:51:25;;;;;;;9.82;5.10;;;;;;;;;;5065720;28;20048;-83
2023/12/16 07:53:54;;;;;;;11.88;5.38;;;;;;;;;;5063656;28;20067;-84
2023/12/16 07:56:24;;;;;;;10.60;5.63;;;;;;;;;;5064718;28;20403;-83
2023/12/16 07:58:53;;;;;;;8.48;5.28;;;;;;;;;;5063675;28;20040;-83
2023/12/16 08:01:21;;;;;;;9.60;5.55;;;;;;;;;;5071560;28;20044;-82
2023/12/16 08:03:50;;;;;;;8.30;4.78;;;;;;;;;;5067337;28;20482;-84
2023/12/16 08:06:20;;;;;;;10.35;5.57;;;;;;;;;;5065957;28;20071;-83
2023/12/16 08:08:50;;;;;;;10.05;4.70;;;;;;;;;;5068575;28;20052;-84
2023/12/16 08:11:18;;;;;;;9.77;5.72;;;;;;;;;;5063331;28;20040;-83
2023/12/16 08:13:47;;;;;;;8.85;4.95;;;;;;;;;;5064292;28;20101;-83
2023/12/16 08:16:15;;;;;;;9.63;5.43;;;;;;;;;;5059710;28;20113;-84
2023/12/16 08:18:43;;;;;;;10.38;5.00;;;;;;;;;;5062978;28;20075;-83
2023/12/16 08:21:12;;;;;;;10.25;5.18;;;;;;;;;;5066434;28;20133;-83
2023/12/16 08:23:40;;;;;;;8.25;5.28;;;;;;;;;;5068103;28;20187;-83
2023/12/16 08:26:11;;;;;;;12.65;5.63;;;;;;;;;;5067007;28;20132;-82
2023/12/16 08:28:40;;;;;;;9.15;5.70;;;;;;;;;;5068659;28;20505;-83
2023/12/16 08:31:08;;;;;;;11.23;5.15;;;;;;;;;;5067677;28;20402;-82
2023/12/16 08:33:37;;;;;;;11.50;5.38;;;;;;;;;;5046261;28;20058;-83
2023/12/16 08:36:07;;;;;;;10.25;5.90;;;;;;;;;;5066523;28;20055;-83
2023/12/16 08:38:36;;;;;;;9.40;5.18;;;;;;;;;;5075355;28;20495;-83
2023/12/16 08:41:07;;;;;;;10.85;4.78;;;;;;;;;;5066156;28;20052;-82
2023/12/16 08:43:36;;;;;;;10.65;5.32;;;;;;;;;;5068814;28;20044;-82
2023/12/16 08:46:06;;;;;;;9.98;4.97;;;;;;;;;;5067059;28;20620;-83
2023/12/16 08:48:34;;;;;;;8.57;4.95;;;;;;;;;;5061789;28;20067;-83
2023/12/16 08:51:03;;;;;;;9.30;4.68;;;;;;;;;;5069986;28;20052;-84
2023/12/16 08:53:32;;;;;;;9.57;5.18;;;;;;;;;;5068490;28;20051;-84
2023/12/16 08:56:00;;;;;;;9.90;5.60;;;;;;;;;;5069905;28;20045;-83
2023/12/16 08:58:29;;;;;;;9.02;5.03;;;;;;;;;;5069011;28;20105;-84
2023/12/16 09:00:59;;;;;;;9.43;5.63;;;;;;;;;;5068472;28;20131;-83
2023/12/16 09:03:27;;;;;;;8.65;5.13;;;;;;;;;;5072562;28;20044;-83
2023/12/16 09:05:56;;;;;;;9.32;4.85;;;;;;;;;;5068897;28;20052;-83
2023/12/16 09:08:24;;;;;;;8.50;5.03;;;;;;;;;;5070141;28;20515;-84
2023/12/16 09:10:52;;;;;;;10.55;5.38;;;;;;;;;;5064030;28;20121;-85
2023/12/16 09:13:21;;;;;;;8.63;5.03;;;;;;;;;;5067583;28;20067;-82
2023/12/16 09:15:50;;;;;;;9.75;5.70;;;;;;;;;;5075454;28;20037;-83
2023/12/16 09:18:20;;;;;;;12.05;5.72;;;;;;;;;;5066024;28;20055;-83
2023/12/16 09:20:48;;;;;;;9.13;4.90;;;;;;;;;;5061638;28;20423;-83
2023/12/16 09:23:17;;;;;;;9.38;5.07;;;;;;;;;;5070854;28;20101;-83
2023/12/16 09:25:45;;;;;;;9.07;4.82;;;;;;;;;;5067370;28;20082;-83
2023/12/16 09:28:14;;;;;;;8.68;4.85;;;;;;;;;;5066504;28;20133;-84
2023/12/16 09:30:42;;;;;;;8.75;4.65;;;;;;;;;;5065771;28;20502;-83
2023/12/16 09:33:11;;;;;;;9.63;5.32;;;;;;;;;;5064874;28;20611;-82
2023/12/16 09:35:41;;;;;;;9.40;5.13;;;;;;;;;;5067786;28;20089;-83
2023/12/16 09:38:09;;;;;;;9.18;5.10;;;;;;;;;;5072716;28;20048;-83
2023/12/16 09:40:37;;;;;;;8.07;4.88;;;;;;;;;;5070082;28;20455;-82
2023/12/16 09:43:14;;;;;;;8.00;4.22;;;;;;;;;;5071154;28;20056;-83
2023/12/16 09:45:42;;;;;;;10.10;4.85;;;;;;;;;;5064677;28;20064;-83
2023/12/16 09:48:11;;;;;;;9.40;5.28;;;;;;;;;;5066313;28;20129;-83
2023/12/16 09:50:41;;;;;;;9.23;4.95;;;;;;;;;;5063310;28;20101;-83
2023/12/16 09:53:10;;;;;;;8.38;4.65;;;;;;;;;;5060654;28;20489;-85
2023/12/16 09:55:38;;;;;;;8.18;5.05;;;;;;;;;;5059411;28;20094;-84
2023/12/16 09:58:07;;;;;;;9.10;5.22;;;;;;;;;;5059789;28;20052;-84
2023/12/16 10:00:36;;;;;;;10.40;4.82;;;;;;;;;;5071956;28;20055;-85
2023/12/16 10:03:05;;;;;;;8.65;4.75;;;;;;;;;;5065889;28;20521;-84
2023/12/16 10:05:34;;;;;;;11.45;5.32;;;;;;;;;;5072977;28;20047;-85
2023/12/16 10:08:05;;;;;;;7.32;4.68;;;;;;;;;;5080146;28;20074;-84
2023/12/16 10:10:34;;;;;;;6.50;4.35;;;;;;;;;;5070682;28;20049;-85
2023/12/16 10:13:04;;;;;;;8.63;4.35;;;;;;;;;;5069878;28;20064;-85
2023/12/16 10:15:33;;;;;;;9.13;5.15;;;;;;;;;;5070140;28;20056;-86
2023/12/16 10:18:02;;;;;;;7.35;4.82;;;;;;;;;;5078826;28;20106;-85
2023/12/16 10:20:31;;;;;;;7.78;4.32;;;;;;;;;;5074371;28;20048;-85
2023/12/16 10:23:01;;;;;;;6.78;4.55;;;;;;;;;;5078124;28;20059;-85
2023/12/16 10:25:32;;;;;;;5.88;3.88;;;;;;;;;;5070706;28;20048;-86
2023/12/16 10:28:02;;;;;;;9.57;5.03;;;;;;;;;;5079806;28;20044;-84
2023/12/16 10:30:31;;;;;;;7.47;4.20;;;;;;;;;;5061666;28;20037;-84
2023/12/16 10:33:02;;;;;;;5.50;3.88;;;;;;;;;;5072471;28;20509;-85
2023/12/16 10:35:31;;;;;;;7.72;4.50;;;;;;;;;;5076465;28;20135;-86
2023/12/16 10:38:00;;;;;;;6.90;4.28;;;;;;;;;;5072986;28;20471;-85
2023/12/16 10:40:28;;;;;;;5.95;3.80;;;;;;;;;;5058672;28;20461;-86
2023/12/16 10:42:58;;;;;;;4.40;2.90;;;;;;;;;;5056247;28;20490;-84
2023/12/16 10:45:27;;;;;;;6.60;3.42;;;;;;;;;;5052211;28;20139;-84
2023/12/16 10:47:56;;;;;;;5.20;2.80;;;;;;;;;;5035858;28;20055;-85
2023/12/16 10:50:27;;;;;;;3.25;2.63;;;;;;;;;;5047733;28;20152;-86
2023/12/16 10:52:57;;;;;;;6.15;2.83;;;;;;;;;;5047320;28;20395;-86
2023/12/16 10:55:30;;;;;;;4.82;3.17;;;;;;;;;;5051299;28;20140;-85
2023/12/16 10:58:04;;;;;;;4.60;3.13;;;;;;;;;;5048764;28;20049;-90
2023/12/16 11:00:34;;;;;;;5.22;3.22;;;;;;;;;;5046011;28;20162;-87
2023/12/16 11:03:05;;;;;;;4.82;2.85;;;;;;;;;;5048843;28;20508;-86
2023/12/16 11:05:34;;;;;;;5.00;2.67;;;;;;;;;;5045068;28;20052;-86
2023/12/16 11:08:04;;;;;;;5.07;3.05;;;;;;;;;;5047348;28;20175;-87
2023/12/16 11:10:33;;;;;;;4.68;2.80;;;;;;;;;;5047590;28;20108;-87
2023/12/16 11:13:04;;;;;;;4.75;2.80;;;;;;;;;;5045611;28;20247;-86
2023/12/16 11:15:33;;;;;;;6.35;3.42;;;;;;;;;;5048258;28;20064;-86
2023/12/16 11:18:02;;;;;;;5.70;3.72;;;;;;;;;;5046127;28;20111;-85
2023/12/16 11:20:33;;;;;;;6.50;2.90;;;;;;;;;;5048542;28;20480;-86
2023/12/16 11:23:02;;;;;;;3.67;2.72;;;;;;;;;;5047253;28;20091;-86
2023/12/16 11:25:30;;;;;;;5.28;3.53;;;;;;;;;;5048539;28;20053;-86
2023/12/16 11:27:59;;;;;;;4.63;2.85;;;;;;;;;;5048866;28;20068;-87
2023/12/16 11:30:29;;;;;;;5.25;2.70;;;;;;;;;;5048439;28;20064;-86
2023/12/16 11:32:59;;;;;;;3.22;2.25;;;;;;;;;;5049443;28;20084;-85
2023/12/16 11:35:45;;;;;;;3.58;2.45;;;;;;;;;;5045195;28;20132;-85
2023/12/16 11:38:38;;;;;;;2.90;2.45;;;;;;;;;;5048230;28;20063;-85
2023/12/16 11:41:06;;;;;;;5.10;2.38;;;;;;;;;;5048387;28;20086;-85
2023/12/16 11:43:48;;;;;;;4.45;2.03;;;;;;;;;;5066334;28;20080;-85
2023/12/16 11:46:39;;;;;;;4.03;2.55;;;;;;;;;;5067106;28;20045;-84
2023/12/16 11:49:10;;;;;;;3.92;2.33;;;;;;;;;;5068661;28;20103;-85
2023/12/16 11:51:39;;;;;;;2.70;1.75;;;;;;;;;;5066332;28;20093;-85
2023/12/16 11:54:08;;;;;;;3.28;2.38;;;;;;;;;;5064808;28;20087;-86
2023/12/16 11:56:37;;;;;;;4.72;2.10;;;;;;;;;;5066955;28;20106;-85
2023/12/16 11:59:07;;;;;;;2.97;1.80;;;;;;;;;;5067234;28;20052;-86
2023/12/16 12:01:37;;;;;;;3.58;2.10;;;;;;;;;;5068300;28;20114;-86
2023/12/16 12:04:07;;;;;;;4.05;1.90;;;;;;;;;;5062388;28;20090;-85
2023/12/16 12:06:36;;;;;;;2.30;1.95;;;;;;;;;;5063840;28;20596;-84
2023/12/16 12:09:06;;;;;;;3.10;1.95;;;;;;;;;;5062428;28;20076;-84
2023/12/16 12:11:35;;;;;;;3.17;1.98;;;;;;;;;;5067345;28;20075;-84
2023/12/16 12:14:05;;;;;;;4.50;2.90;;;;;;;;;;5068501;28;20044;-86
2023/12/16 12:16:33;;;;;;;2.97;2.40;;;;;;;;;;5066418;28;20067;-85
2023/12/16 12:19:03;;;;;;;3.25;2.42;;;;;;;;;;5065391;28;20143;-86
2023/12/16 12:21:35;;;;;;;4.07;2.55;;;;;;;;;;5067180;28;20045;-86
2023/12/16 12:24:04;;;;;;;5.28;2.50;;;;;;;;;;5068906;28;20048;-85
2023/12/16 12:26:32;;;;;;;3.65;2.33;;;;;;;;;;5068206;28;20045;-84
2023/12/16 12:29:02;;;;;;;4.22;2.40;;;;;;;;;;5072586;28;20044;-84
2023/12/16 12:31:42;;;;;;;4.38;2.38;;;;;;;;;;5063514;28;20036;-84
2023/12/16 12:34:17;;;;;;;4.07;2.40;;;;;;;;;;5067534;28;20095;-84
2023/12/16 12:36:46;;;;;;;3.22;2.63;;;;;;;;;;5068384;28;20045;-85
2023/12/16 12:39:18;;;;;;;3.95;2.60;;;;;;;;;;5066845;28;20631;-84
2023/12/16 12:42:00;;;;;;;5.47;2.67;;;;;;;;;;5068312;28;20650;-84
2023/12/16 12:44:37;;;;;;;5.47;2.53;;;;;;;;;;5083808;27;20798;-61
2023/12/16 12:47:06;;;;;;;3.35;2.50;;;;;;;;;;5064345;27;20151;-65
2023/12/16 12:49:36;;;;;;;4.25;2.70;;;;;;;;;;5043375;28;20127;-65
2023/12/16 12:52:05;;;;;;;6.30;2.80;;;;;;;;;;5044576;28;20383;-64
2023/12/16 12:54:48;;;;;;;4.85;3.00;;;;;;;;;;5045525;28;20053;-60
2023/12/16 12:57:19;;;;;;;3.50;2.08;;;;;;;;;;5050289;28;20045;-60
2023/12/16 12:59:48;;;;;;;4.80;2.67;;;;;;;;;;5064882;28;20048;-59
2023/12/16 13:02:31;;;;;;;5.90;2.47;;;;;;;;;;5060746;28;20183;-59
2023/12/16 13:04:59;;;;;;;3.60;2.60;;;;;;;;;;5062292;28;20052;-64
2023/12/16 13:07:28;;;;;;;3.75;2.30;;;;;;;;;;5060204;28;20060;-65
2023/12/16 13:09:56;;;;;;;4.15;2.63;;;;;;;;;;5060033;28;20052;-62
2023/12/16 13:12:26;;;;;;;3.75;2.25;;;;;;;;;;5058530;28;20513;-68
2023/12/16 13:14:55;;;;;;;2.53;1.90;;;;;;;;;;5060206;28;20142;-62
2023/12/16 13:17:24;;;;;;;2.22;1.63;;;;;;;;;;5060215;28;20422;-61
2023/12/16 13:19:52;;;;;;;2.90;2.00;;;;;;;;;;5060839;28;20553;-59
2023/12/16 13:22:21;;;;;;;3.80;2.35;;;;;;;;;;5057678;28;20045;-59
2023/12/16 13:24:49;;;;;;;3.20;2.08;;;;;;;;;;5061066;28;20098;-64
2023/12/16 13:27:18;;;;;;;5.00;2.17;;;;;;;;;;5057647;28;20195;-63
2023/12/16 13:29:46;;;;;;;4.72;2.08;;;;;;;;;;5063612;28;20041;-60
2023/12/16 13:32:16;;;;;;;4.78;2.10;;;;;;;;;;5061801;28;20052;-59
2023/12/16 13:34:44;;;;;;;4.93;2.00;;;;;;;;;;5061695;28;20099;-59
2023/12/16 13:37:13;;;;;;;3.20;1.80;;;;;;;;;;5061171;28;20469;-64
2023/12/16 13:39:41;;;;;;;3.17;2.17;;;;;;;;;;5055340;28;20103;-62
2023/12/16 13:42:09;;;;;;;3.70;2.33;;;;;;;;;;5052838;28;20048;-62
2023/12/16 13:44:38;;;;;;;4.50;1.98;;;;;;;;;;5052932;28;20085;-61
2023/12/16 13:47:07;;;;;;;3.13;2.00;;;;;;;;;;5045558;28;20041;-62
2023/12/16 13:49:36;;;;;;;3.40;2.30;;;;;;;;;;5048511;28;20053;-62
2023/12/16 13:52:07;;;;;;;3.00;1.63;;;;;;;;;;5054719;28;20045;-63
2023/12/16 13:54:35;;;;;;;4.32;1.80;;;;;;;;;;5038741;28;20564;-64
2023/12/16 13:57:03;;;;;;;4.25;2.50;;;;;;;;;;5042296;28;20564;-59
2023/12/16 13:59:32;;;;;;;6.60;2.92;;;;;;;;;;5040527;28;20045;-63
2023/12/16 14:02:01;;;;;;;5.70;2.70;;;;;;;;;;5034704;28;20045;-61
2023/12/16 14:04:29;;;;;;;5.97;3.15;;;;;;;;;;5036501;28;20049;-61
2023/12/16 14:06:59;;;;;;;4.28;2.55;;;;;;;;;;5036506;28;20045;-62
2023/12/16 14:09:28;;;;;;;4.32;2.65;;;;;;;;;;5037106;28;20052;-62
2023/12/16 14:11:56;;;;;;;2.85;2.30;;;;;;;;;;5037573;28;20103;-61
2023/12/16 14:14:24;;;;;;;3.80;2.38;;;;;;;;;;5041176;28;20063;-60
2023/12/16 14:16:53;;;;;;;2.92;2.17;;;;;;;;;;5043771;28;20763;-61
2023/12/16 14:19:21;;;;;;;3.50;2.30;;;;;;;;;;5037859;28;20072;-61
2023/12/16 14:21:50;;;;;;;3.42;2.22;;;;;;;;;;5038994;28;20529;-61
2023/12/16 14:24:19;;;;;;;3.17;2.22;;;;;;;;;;5033758;28;20055;-62
2023/12/16 14:26:48;;;;;;;5.63;2.35;;;;;;;;;;5033958;28;20549;-63
2023/12/16 14:29:16;;;;;;;2.90;2.20;;;;;;;;;;5031156;28;20144;-62
2023/12/16 14:31:48;;;;;;;3.88;2.97;;;;;;;;;;5038079;28;20061;-61
2023/12/16 14:34:18;;;;;;;3.63;2.42;;;;;;;;;;5040452;28;20122;-62
2023/12/16 14:36:47;;;;;;;3.53;2.10;;;;;;;;;;5037457;28;20056;-61
2023/12/16 14:39:15;;;;;;;4.32;2.55;;;;;;;;;;5036733;28;20045;-63
2023/12/16 14:41:45;;;;;;;3.25;2.38;;;;;;;;;;5036167;28;20404;-59
2023/12/16 14:44:14;;;;;;;3.53;2.38;;;;;;;;;;5034491;28;20138;-62
2023/12/16 14:46:42;;;;;;;3.88;2.45;;;;;;;;;;5032317;28;20077;-63
2023/12/16 14:49:11;;;;;;;3.67;2.38;;;;;;;;;;5033686;28;20110;-62
2023/12/16 14:51:40;;;;;;;4.57;2.72;;;;;;;;;;5033455;28;20490;-62